createdAt,value
2018-03-20T00:02:15.911Z,64.40
2018-03-20T00:04:43.499Z,61.00
2018-03-20T00:07:11.860Z,47.62
2018-03-20T00:09:40.244Z,59.88
2018-03-20T00:12:07.856Z,49.60
2018-03-20T00:14:35.423Z,52.42
2018-03-20T00:17:03.000Z,54.38
2018-03-20T00:19:31.349Z,59.05
2018-03-20T00:21:58.930Z,53.90
2018-03-20T00:24:26.522Z,56.25
2018-03-20T00:26:54.071Z,59.00
2018-03-20T00:29:22.436Z,62.72
2018-03-20T00:31:50.016Z,63.03
2018-03-20T00:34:18.344Z,66.78
2018-03-20T00:36:45.925Z,63.20
2018-03-20T00:39:13.531Z,69.60
2018-03-20T00:41:41.915Z,79.65
2018-03-20T00:44:10.497Z,74.00
2018-03-20T00:46:38.121Z,78.37
2018-03-20T00:49:06.442Z,78.22
2018-03-20T00:51:34.004Z,78.40
2018-03-20T00:54:01.678Z,65.12
2018-03-20T00:56:29.989Z,68.85
2018-03-20T00:58:58.315Z,64.20
2018-03-20T01:01:26.701Z,61.53
2018-03-20T01:03:55.772Z,64.60
2018-03-20T01:06:23.337Z,64.55
2018-03-20T01:08:51.812Z,65.40
2018-03-20T01:11:19.414Z,65.28
2018-03-20T01:13:47.769Z,71.40
2018-03-20T01:16:16.093Z,72.97
2018-03-20T01:18:43.703Z,75.65
2018-03-20T01:21:12.648Z,70.12
2018-03-20T01:23:41.073Z,67.57
2018-03-20T01:26:09.373Z,72.72
2018-03-20T01:28:36.951Z,71.50
2018-03-20T01:31:05.487Z,61.90
2018-03-20T01:33:33.153Z,85.45
2018-03-20T01:36:00.701Z,60.97
2018-03-20T01:38:29.057Z,69.85
2018-03-20T01:40:56.635Z,76.18
2018-03-20T01:43:24.205Z,76.18
2018-03-20T01:45:51.771Z,67.82
2018-03-20T01:48:20.941Z,68.32
2018-03-20T01:50:48.515Z,69.25
2018-03-20T01:53:19.063Z,64.82
2018-03-20T01:55:47.387Z,61.10
2018-03-20T01:58:14.954Z,62.95
2018-03-20T02:00:43.365Z,56.72
2018-03-20T02:03:12.790Z,48.00
2018-03-20T02:05:41.229Z,53.67
2018-03-20T02:08:09.333Z,57.85
2018-03-20T02:10:37.683Z,59.35
2018-03-20T02:13:05.339Z,51.60
2018-03-20T02:15:33.771Z,43.70
2018-03-20T02:18:01.293Z,53.40
2018-03-20T02:20:29.657Z,50.17
2018-03-20T02:22:57.286Z,45.15
2018-03-20T02:25:24.964Z,47.95
2018-03-20T02:27:52.512Z,50.22
2018-03-20T02:30:21.847Z,47.05
2018-03-20T02:32:49.503Z,53.28
2018-03-20T02:35:17.838Z,47.88
2018-03-20T02:37:46.214Z,53.15
2018-03-20T02:40:13.776Z,51.80
2018-03-20T02:42:41.722Z,53.25
2018-03-20T02:45:10.023Z,51.33
2018-03-20T02:47:37.587Z,48.65
2018-03-20T02:50:05.144Z,52.35
2018-03-20T02:52:32.713Z,54.53
2018-03-20T02:55:00.270Z,45.88
2018-03-20T02:57:28.737Z,49.53
2018-03-20T02:59:56.300Z,48.47
2018-03-20T03:02:23.876Z,53.03
2018-03-20T03:04:51.442Z,47.35
2018-03-20T03:07:19.035Z,52.30
2018-03-20T03:09:46.659Z,53.15
2018-03-20T03:12:14.958Z,50.22
2018-03-20T03:14:42.558Z,58.10
2018-03-20T03:17:10.828Z,54.97
2018-03-20T03:19:40.280Z,48.05
2018-03-20T03:22:09.225Z,53.63
2018-03-20T03:24:36.782Z,51.17
2018-03-20T03:27:04.384Z,48.30
2018-03-20T03:29:31.963Z,48.13
2018-03-20T03:32:00.312Z,58.87
2018-03-20T03:34:27.901Z,57.83
2018-03-20T03:36:55.458Z,55.85
2018-03-20T03:39:23.044Z,50.90
2018-03-20T03:41:52.631Z,58.15
2018-03-20T03:44:21.356Z,56.53
2018-03-20T03:46:48.910Z,55.03
2018-03-20T03:49:16.517Z,54.40
2018-03-20T03:51:44.868Z,52.55
2018-03-20T03:54:12.548Z,52.45
2018-03-20T03:56:40.113Z,57.42
2018-03-20T03:59:09.719Z,64.62
2018-03-20T04:01:38.061Z,64.05
2018-03-20T04:04:07.606Z,48.83
2018-03-20T04:06:40.157Z,61.85
2018-03-20T04:09:08.741Z,52.03
2018-03-20T04:11:36.356Z,51.00
2018-03-20T04:14:04.039Z,55.78
2018-03-20T04:16:31.685Z,59.00
2018-03-20T04:18:59.324Z,62.10
2018-03-20T04:21:26.873Z,61.13
2018-03-20T04:23:54.555Z,59.80
2018-03-20T04:26:23.691Z,54.28
2018-03-20T04:28:52.150Z,71.72
2018-03-20T04:31:20.375Z,58.60
2018-03-20T04:33:48.742Z,60.53
2018-03-20T04:36:17.124Z,59.10
2018-03-20T04:38:44.810Z,54.13
2018-03-20T04:41:12.410Z,59.65
2018-03-20T04:43:40.013Z,56.58
2018-03-20T04:46:08.359Z,45.55
2018-03-20T04:48:36.989Z,52.65
2018-03-20T04:51:05.667Z,56.00
2018-03-20T04:53:33.379Z,55.53
2018-03-20T04:56:01.000Z,50.45
2018-03-20T04:58:28.610Z,55.23
2018-03-20T05:00:56.245Z,53.03
2018-03-20T05:03:23.787Z,50.33
2018-03-20T05:05:51.407Z,54.15
2018-03-20T05:08:19.073Z,55.50
2018-03-20T05:10:46.750Z,52.88
2018-03-20T05:13:14.451Z,47.78
2018-03-20T05:15:42.191Z,53.38
2018-03-20T05:18:09.794Z,50.38
2018-03-20T05:23:51.078Z,48.83
2018-03-20T05:26:18.715Z,46.53
2018-03-20T05:28:46.393Z,49.15
2018-03-20T05:31:14.045Z,61.78
2018-03-20T05:33:42.213Z,44.22
2018-03-20T05:36:09.860Z,44.85
2018-03-20T05:38:38.198Z,45.55
2018-03-20T05:41:07.114Z,45.50
2018-03-20T05:43:36.256Z,50.50
2018-03-20T05:46:03.939Z,47.72
2018-03-20T05:48:37.032Z,49.70
2018-03-20T05:51:10.431Z,42.60
2018-03-20T05:53:38.878Z,43.40
2018-03-20T05:56:08.209Z,48.05
2018-03-20T05:58:36.725Z,43.05
2018-03-20T06:01:06.977Z,50.53
2018-03-20T06:03:34.879Z,44.65
2018-03-20T06:06:03.295Z,50.45
2018-03-20T06:08:31.198Z,48.58
2018-03-20T06:10:59.140Z,48.90
2018-03-20T06:13:26.693Z,50.45
2018-03-20T06:15:54.284Z,53.03
2018-03-20T06:18:21.878Z,56.28
2018-03-20T06:20:49.459Z,52.92
2018-03-20T06:23:17.156Z,45.15
2018-03-20T06:25:45.761Z,54.90
2018-03-20T06:28:13.319Z,50.33
2018-03-20T06:30:40.972Z,52.35
2018-03-20T06:33:09.766Z,60.35
2018-03-20T06:35:37.608Z,52.10
2018-03-20T06:38:06.101Z,59.83
2018-03-20T06:40:33.694Z,46.80
2018-03-20T06:43:01.248Z,49.25
2018-03-20T06:45:29.500Z,52.70
2018-03-20T06:47:57.092Z,47.13
2018-03-20T06:50:24.688Z,54.15
2018-03-20T06:52:52.327Z,45.88
2018-03-20T06:55:19.893Z,47.83
2018-03-20T06:57:48.430Z,47.10
2018-03-20T07:00:16.035Z,50.63
2018-03-20T07:02:44.611Z,47.08
2018-03-20T07:05:12.220Z,47.05
2018-03-20T07:07:40.097Z,44.40
2018-03-20T07:10:08.043Z,51.25
2018-03-20T07:12:36.818Z,48.67
2018-03-20T07:15:05.964Z,52.25
2018-03-20T07:17:33.880Z,43.42
2018-03-20T07:20:01.759Z,41.88
2018-03-20T07:22:29.484Z,50.05
2018-03-20T07:24:57.359Z,53.78
2018-03-20T07:27:28.727Z,50.25
2018-03-20T07:29:56.358Z,57.15
2018-03-20T07:32:24.431Z,43.00
2018-03-20T07:34:53.787Z,54.33
2018-03-20T07:37:21.848Z,50.53
2018-03-20T07:39:51.664Z,37.53
2018-03-20T07:42:19.557Z,50.80
2018-03-20T07:44:48.227Z,50.22
2018-03-20T07:47:16.780Z,51.72
2018-03-20T07:49:46.272Z,45.72
2018-03-20T07:52:14.663Z,46.58
2018-03-20T07:54:42.280Z,43.15
2018-03-20T07:57:10.794Z,45.78
2018-03-20T07:59:39.634Z,45.40
2018-03-20T08:02:08.289Z,42.72
2018-03-20T08:04:36.823Z,41.22
2018-03-20T08:07:05.606Z,37.63
2018-03-20T08:09:33.171Z,43.38
2018-03-20T08:12:01.571Z,44.42
2018-03-20T08:14:30.179Z,33.67
2018-03-20T08:16:58.524Z,39.55
2018-03-20T08:19:26.122Z,42.17
2018-03-20T08:21:53.817Z,35.73
2018-03-20T08:24:22.168Z,41.23
2018-03-20T08:26:49.764Z,37.17
2018-03-20T08:29:17.361Z,39.23
2018-03-20T08:31:45.713Z,42.37
2018-03-20T08:34:13.282Z,34.07
2018-03-20T08:36:41.824Z,43.27
2018-03-20T08:39:10.169Z,42.07
2018-03-20T08:41:37.783Z,40.80
2018-03-20T08:44:06.189Z,25.37
2018-03-20T08:46:35.108Z,36.30
2018-03-20T08:49:02.740Z,44.03
2018-03-20T08:51:30.366Z,34.13
2018-03-20T08:53:58.713Z,33.27
2018-03-20T08:56:26.293Z,35.90
2018-03-20T08:58:53.908Z,26.70
2018-03-20T09:01:21.845Z,47.43
2018-03-20T09:03:49.602Z,68.70
2018-03-20T09:06:17.318Z,24.90
2018-03-20T09:08:44.898Z,26.73
2018-03-20T09:11:12.466Z,28.67
2018-03-20T09:13:40.188Z,25.20
2018-03-20T09:16:09.459Z,24.80
2018-03-20T09:18:37.256Z,39.40
2018-03-20T09:21:05.160Z,22.70
2018-03-20T09:23:33.532Z,23.43
2018-03-20T09:26:01.165Z,21.00
2018-03-20T09:28:29.600Z,23.33
2018-03-20T09:30:57.256Z,20.90
2018-03-20T09:33:24.832Z,24.90
2018-03-20T09:35:52.519Z,21.13
2018-03-20T09:38:20.154Z,17.63
2018-03-20T09:40:47.828Z,23.23
2018-03-20T09:43:15.519Z,24.60
2018-03-20T09:45:43.135Z,26.37
2018-03-20T09:48:10.705Z,26.80
2018-03-20T09:50:38.376Z,26.23
2018-03-20T09:53:07.439Z,24.43
2018-03-20T09:55:35.974Z,25.80
2018-03-20T09:58:03.697Z,55.23
2018-03-20T10:00:32.195Z,30.47
2018-03-20T10:02:59.849Z,45.60
2018-03-20T10:05:27.473Z,41.20
2018-03-20T10:07:55.010Z,42.30
2018-03-20T10:10:22.563Z,23.47
2018-03-20T10:12:50.148Z,21.20
2018-03-20T10:15:17.693Z,27.87
2018-03-20T10:17:46.105Z,20.20
2018-03-20T10:20:13.771Z,28.27
2018-03-20T10:22:42.221Z,21.90
2018-03-20T10:25:10.623Z,20.80
2018-03-20T10:27:39.006Z,19.30
2018-03-20T10:30:07.415Z,19.63
2018-03-20T10:32:35.953Z,19.70
2018-03-20T10:35:03.636Z,20.27
2018-03-20T10:37:31.270Z,15.97
2018-03-20T10:39:59.666Z,23.73
2018-03-20T10:42:28.211Z,19.43
2018-03-20T10:44:56.633Z,19.57
2018-03-20T10:47:24.954Z,19.60
2018-03-20T10:49:52.522Z,21.93
2018-03-20T10:52:20.957Z,18.73
2018-03-20T10:54:48.542Z,17.27
2018-03-20T10:57:16.125Z,18.37
2018-03-20T10:59:43.860Z,20.47
2018-03-20T11:02:17.075Z,28.70
2018-03-20T11:04:45.762Z,15.73
2018-03-20T11:07:14.108Z,16.83
2018-03-20T11:09:41.665Z,17.97
2018-03-20T11:12:09.393Z,20.67
2018-03-20T11:14:37.361Z,37.47
2018-03-20T11:17:05.180Z,28.47
2018-03-20T11:19:32.780Z,18.00
2018-03-20T11:22:00.411Z,15.93
2018-03-20T11:24:29.191Z,14.90
2018-03-20T11:26:56.890Z,15.87
2018-03-20T11:29:25.509Z,15.77
2018-03-20T11:31:54.100Z,15.90
2018-03-20T11:34:22.501Z,18.63
2018-03-20T11:36:50.125Z,16.70
2018-03-20T11:39:18.453Z,23.57
2018-03-20T11:42:00.952Z,37.20
2018-03-20T11:44:28.596Z,33.80
2018-03-20T11:46:56.256Z,81.53
2018-03-20T11:49:23.893Z,42.23
2018-03-20T11:51:51.546Z,40.17
2018-03-20T11:54:19.321Z,39.73
2018-03-20T11:56:46.914Z,26.73
2018-03-20T11:59:14.726Z,16.77
2018-03-20T12:01:43.124Z,31.63
2018-03-20T12:04:10.790Z,19.60
2018-03-20T12:06:38.393Z,25.73
2018-03-20T12:09:19.343Z,16.83
2018-03-20T12:11:46.967Z,52.50
2018-03-20T12:14:14.540Z,43.47
2018-03-20T12:16:42.121Z,40.47
2018-03-20T12:19:09.920Z,20.13
2018-03-20T12:21:37.502Z,47.63
2018-03-20T12:24:06.303Z,29.97
2018-03-20T12:26:36.411Z,29.37
2018-03-20T12:29:06.374Z,45.00
2018-03-20T12:31:34.159Z,41.17
2018-03-20T12:34:01.842Z,58.87
2018-03-20T12:36:31.130Z,31.80
2018-03-20T12:38:58.706Z,36.40
2018-03-20T12:41:27.323Z,16.77
2018-03-20T12:43:55.750Z,18.03
2018-03-20T12:46:23.313Z,26.77
2018-03-20T12:48:51.903Z,35.87
2018-03-20T12:51:21.692Z,38.23
2018-03-20T12:53:50.072Z,23.67
2018-03-20T12:56:18.634Z,18.07
2018-03-20T12:58:46.193Z,19.17
2018-03-20T13:01:13.831Z,29.93
2018-03-20T13:03:41.629Z,24.43
2018-03-20T13:06:10.309Z,19.67
2018-03-20T13:08:38.728Z,23.50
2018-03-20T13:11:07.254Z,14.83
2018-03-20T13:13:36.450Z,20.23
2018-03-20T13:16:04.064Z,29.27
2018-03-20T13:18:32.430Z,26.63
2018-03-20T13:20:59.986Z,25.03
2018-03-20T13:23:27.649Z,16.87
2018-03-20T13:25:55.940Z,19.13
2018-03-20T13:28:23.506Z,22.53
2018-03-20T13:30:51.824Z,16.33
2018-03-20T13:33:19.409Z,23.20
2018-03-20T13:35:46.972Z,21.90
2018-03-20T13:38:14.509Z,21.73
2018-03-20T13:40:43.041Z,26.00
2018-03-20T13:43:11.372Z,20.70
2018-03-20T13:45:38.929Z,17.87
2018-03-20T13:48:07.517Z,18.87
2018-03-20T13:50:35.632Z,21.13
2018-03-20T13:53:04.041Z,20.53
2018-03-20T13:55:32.633Z,19.07
2018-03-20T13:58:00.954Z,27.97
2018-03-20T14:00:28.599Z,24.53
2018-03-20T14:02:56.179Z,43.23
2018-03-20T14:05:23.810Z,44.20
2018-03-20T14:07:51.394Z,53.10
2018-03-20T14:10:19.864Z,25.43
2018-03-20T14:12:49.227Z,36.23
2018-03-20T14:15:16.830Z,37.07
2018-03-20T14:17:44.395Z,46.10
2018-03-20T14:20:12.965Z,19.63
2018-03-20T14:22:40.707Z,37.53
2018-03-20T14:25:10.303Z,18.87
2018-03-20T14:27:38.118Z,25.17
2018-03-20T14:30:07.736Z,22.13
2018-03-20T14:32:35.849Z,35.83
2018-03-20T14:35:03.579Z,21.27
2018-03-20T14:37:31.936Z,20.63
2018-03-20T14:40:00.276Z,21.20
2018-03-20T14:42:28.641Z,23.23
2018-03-20T14:44:56.235Z,18.70
2018-03-20T14:47:23.794Z,22.17
2018-03-20T14:49:51.395Z,68.47
2018-03-20T14:52:19.949Z,39.13
2018-03-20T14:54:48.324Z,26.63
2018-03-20T14:57:15.893Z,32.00
2018-03-20T14:59:43.474Z,23.80
2018-03-20T15:02:11.046Z,29.80
2018-03-20T15:04:38.646Z,25.50
2018-03-20T15:07:07.863Z,28.17
2018-03-20T15:09:36.283Z,44.03
2018-03-20T15:12:05.584Z,36.93
2018-03-20T15:14:33.282Z,51.80
2018-03-20T15:17:00.822Z,57.07
2018-03-20T15:19:28.406Z,38.63
2018-03-20T15:21:56.790Z,28.23
2018-03-20T15:24:24.534Z,18.70
2018-03-20T15:26:52.124Z,27.80
2018-03-20T15:29:19.714Z,52.33
2018-03-20T15:31:47.287Z,37.27
2018-03-20T15:34:14.885Z,23.57
2018-03-20T15:36:42.485Z,26.67
2018-03-20T15:39:10.043Z,27.40
2018-03-20T15:41:38.388Z,28.13
2018-03-20T15:44:07.883Z,44.70
2018-03-20T15:46:37.309Z,33.93
2018-03-20T15:49:05.344Z,21.75
2018-03-20T15:51:32.998Z,21.30
2018-03-20T15:54:00.585Z,25.40
2018-03-20T15:56:28.176Z,28.67
2018-03-20T15:58:55.812Z,29.33
2018-03-20T16:01:23.402Z,38.30
2018-03-20T16:03:51.007Z,30.60
2018-03-20T16:06:18.720Z,30.03
2018-03-20T16:08:47.046Z,38.70
2018-03-20T16:11:14.688Z,28.73
2018-03-20T16:13:43.508Z,37.00
2018-03-20T16:16:11.283Z,27.17
2018-03-20T16:18:39.689Z,19.60
2018-03-20T16:21:08.169Z,20.60
2018-03-20T16:23:38.039Z,23.98
2018-03-20T16:26:07.440Z,24.83
2018-03-20T16:28:35.835Z,22.20
2018-03-20T16:31:03.588Z,30.92
2018-03-20T16:33:32.043Z,39.17
2018-03-20T16:35:59.638Z,24.60
2018-03-20T16:38:27.985Z,17.12
2018-03-20T16:40:57.052Z,40.47
2018-03-20T16:43:24.738Z,22.70
2018-03-20T16:45:52.501Z,27.73
2018-03-20T16:48:20.029Z,18.58
2018-03-20T16:50:47.689Z,21.58
2018-03-20T16:53:15.275Z,53.50
2018-03-20T16:55:42.845Z,28.60
2018-03-20T16:58:10.492Z,45.22
2018-03-20T17:00:38.046Z,31.17
2018-03-20T17:03:06.357Z,26.60
2018-03-20T17:05:34.073Z,42.97
2018-03-20T17:08:02.439Z,29.15
2018-03-20T17:10:30.117Z,27.25
2018-03-20T17:12:57.722Z,20.05
2018-03-20T17:15:25.345Z,16.12
2018-03-20T17:17:53.096Z,18.02
2018-03-20T17:20:22.867Z,15.63
2018-03-20T17:22:51.181Z,26.42
2018-03-20T17:25:18.750Z,23.33
2018-03-20T17:27:46.350Z,12.73
2018-03-20T17:30:13.899Z,15.45
2018-03-20T17:32:41.475Z,23.67
2018-03-20T17:35:09.845Z,22.33
2018-03-20T17:37:38.191Z,19.08
2018-03-20T17:40:07.587Z,14.00
2018-03-20T17:42:35.788Z,30.83
2018-03-20T17:45:03.550Z,29.05
2018-03-20T17:47:31.310Z,22.65
2018-03-20T17:49:58.930Z,27.58
2018-03-20T17:52:26.623Z,28.12
2018-03-20T17:54:56.548Z,19.92
2018-03-20T17:57:24.301Z,16.90
2018-03-20T17:59:51.837Z,14.05
2018-03-20T18:02:21.195Z,24.25
2018-03-20T18:04:48.805Z,27.75
2018-03-20T18:07:16.386Z,20.05
2018-03-20T18:09:43.961Z,27.80
2018-03-20T18:12:12.299Z,13.88
2018-03-20T18:14:39.890Z,24.60
2018-03-20T18:17:08.572Z,20.60
2018-03-20T18:19:37.051Z,20.33
2018-03-20T18:22:06.312Z,21.33
2018-03-20T18:24:35.848Z,21.45
2018-03-20T18:27:03.530Z,22.17
2018-03-20T18:29:31.125Z,17.55
2018-03-20T18:31:58.718Z,23.52
2018-03-20T18:34:27.901Z,17.80
2018-03-20T18:36:58.133Z,19.85
2018-03-20T18:39:25.786Z,21.25
2018-03-20T18:41:54.267Z,20.50
2018-03-20T18:44:22.016Z,26.02
2018-03-20T18:46:49.637Z,27.65
2018-03-20T18:49:18.206Z,23.08
2018-03-20T18:51:46.526Z,28.52
2018-03-20T18:54:14.175Z,20.95
2018-03-20T18:56:41.826Z,20.85
2018-03-20T18:59:09.444Z,21.58
2018-03-20T19:01:37.558Z,21.23
2018-03-20T19:04:05.866Z,19.65
2018-03-20T19:06:33.464Z,21.83
2018-03-20T19:09:01.030Z,21.02
2018-03-20T19:11:29.434Z,23.83
2018-03-20T19:13:57.072Z,22.52
2018-03-20T19:16:24.736Z,20.67
2018-03-20T19:18:52.331Z,21.42
2018-03-20T19:21:20.742Z,28.00
2018-03-20T19:23:48.405Z,30.88
2018-03-20T19:26:16.757Z,24.52
2018-03-20T19:28:44.330Z,24.20
2018-03-20T19:31:13.518Z,25.40
2018-03-20T19:33:41.075Z,27.62
2018-03-20T19:36:08.756Z,28.77
2018-03-20T19:38:37.110Z,27.65
2018-03-20T19:41:06.218Z,27.13
2018-03-20T19:43:33.823Z,28.87
2018-03-20T19:46:01.427Z,27.35
2018-03-20T19:48:29.790Z,23.98
2018-03-20T19:50:58.150Z,24.63
2018-03-20T19:53:25.765Z,28.75
2018-03-20T19:55:54.109Z,29.42
2018-03-20T19:58:21.774Z,25.73
2018-03-20T20:00:49.320Z,25.77
2018-03-20T20:03:16.881Z,30.42
2018-03-20T20:05:45.309Z,29.75
2018-03-20T20:08:13.190Z,27.87
2018-03-20T20:10:41.604Z,29.33
2018-03-20T20:13:09.260Z,33.67
2018-03-20T20:15:37.811Z,28.90
2018-03-20T20:18:06.128Z,31.45
2018-03-20T20:20:33.766Z,36.08
2018-03-20T20:23:01.445Z,32.35
2018-03-20T20:25:29.272Z,35.53
2018-03-20T20:27:57.736Z,32.75
2018-03-20T20:30:25.376Z,36.97
2018-03-20T20:32:53.153Z,34.38
2018-03-20T20:35:20.843Z,37.33
2018-03-20T20:37:49.399Z,36.17
2018-03-20T20:40:17.728Z,38.17
2018-03-20T20:42:45.423Z,38.38
2018-03-20T20:45:13.002Z,38.47
2018-03-20T20:47:41.129Z,39.42
2018-03-20T20:50:08.736Z,44.00
2018-03-20T20:52:37.591Z,42.47
2018-03-20T20:55:06.451Z,45.28
2018-03-20T20:57:34.136Z,47.33
2018-03-20T21:00:02.450Z,48.10
2018-03-20T21:02:30.031Z,43.50
2018-03-20T21:04:57.619Z,41.88
2018-03-20T21:07:25.156Z,39.95
2018-03-20T21:09:52.776Z,43.95
2018-03-20T21:12:20.400Z,42.05
2018-03-20T21:14:48.089Z,47.10
2018-03-20T21:17:16.579Z,42.97
2018-03-20T21:19:44.256Z,45.08
2018-03-20T21:22:12.850Z,46.40
2018-03-20T21:24:40.404Z,50.90
2018-03-20T21:27:08.026Z,48.55
2018-03-20T21:29:37.183Z,55.85
2018-03-20T21:32:05.630Z,56.00
2018-03-20T21:34:33.254Z,53.95
2018-03-20T21:37:00.811Z,58.33
2018-03-20T21:39:28.447Z,58.15
2018-03-20T21:41:56.014Z,55.72
2018-03-20T21:44:23.563Z,61.90
2018-03-20T21:46:52.165Z,55.20
2018-03-20T21:49:20.468Z,55.08
2018-03-20T21:51:48.075Z,60.72
2018-03-20T21:54:15.658Z,60.83
2018-03-20T21:56:43.239Z,56.40
2018-03-20T21:59:10.786Z,54.30
2018-03-20T22:01:38.385Z,55.63
2018-03-20T22:04:06.609Z,56.78
2018-03-20T22:06:34.193Z,61.78
2018-03-20T22:09:01.811Z,58.08
2018-03-20T22:11:29.430Z,58.65
2018-03-20T22:13:57.755Z,60.22
2018-03-20T22:16:25.363Z,56.10
2018-03-20T22:18:52.996Z,60.95
2018-03-20T22:21:20.650Z,59.22
2018-03-20T22:23:48.257Z,63.70
2018-03-20T22:26:16.041Z,58.28
2018-03-20T22:28:43.687Z,59.75
2018-03-20T22:31:11.258Z,59.60
2018-03-20T22:33:39.626Z,63.45
2018-03-20T22:36:07.685Z,67.37
2018-03-20T22:38:35.540Z,66.65
2018-03-20T22:41:03.112Z,62.22
2018-03-20T22:43:31.496Z,62.05
2018-03-20T22:45:59.062Z,63.92
2018-03-20T22:48:26.695Z,60.25
2018-03-20T22:50:57.104Z,62.33
2018-03-20T22:53:24.662Z,69.37
2018-03-20T22:55:52.300Z,63.33
2018-03-20T22:58:19.861Z,63.08
2018-03-20T23:00:47.416Z,61.67
2018-03-20T23:03:15.775Z,61.80
2018-03-20T23:05:44.098Z,60.33
2018-03-20T23:08:11.659Z,66.70
2018-03-20T23:10:39.300Z,62.50
2018-03-20T23:13:07.617Z,62.25
2018-03-20T23:15:35.634Z,61.85
2018-03-20T23:18:03.294Z,66.20
2018-03-20T23:20:30.847Z,62.75
2018-03-20T23:22:59.153Z,65.25
2018-03-20T23:25:26.745Z,62.95
2018-03-20T23:27:54.320Z,66.43
2018-03-20T23:30:21.890Z,64.75
2018-03-20T23:32:49.478Z,62.05
2018-03-20T23:35:17.087Z,62.65
2018-03-20T23:37:44.633Z,65.07
2018-03-20T23:40:12.993Z,59.45
2018-03-20T23:42:40.534Z,64.07
2018-03-20T23:45:08.911Z,60.22
2018-03-20T23:47:37.320Z,63.28
2018-03-20T23:50:06.631Z,64.12
2018-03-20T23:52:34.218Z,69.47
2018-03-20T23:55:01.767Z,63.95
2018-03-20T23:57:29.323Z,73.37
2018-03-20T23:59:56.911Z,68.85
